sensor_id;sensor_type;location;lat;lon;timestamp;temperature;humidity
67161;DHT22;54088;52.238;21.104;2023-01-24T00:02:02;3.40;95.40
67161;DHT22;54088;52.238;21.104;2023-01-24T00:04:28;3.50;95.30
67161;DHT22;54088;52.238;21.104;2023-01-24T00:06:53;3.40;95.00
67161;DHT22;54088;52.238;21.104;2023-01-24T00:09:19;3.40;95.10
67161;DHT22;54088;52.238;21.104;2023-01-24T00:11:44;3.50;95.30
67161;DHT22;54088;52.238;21.104;2023-01-24T00:14:10;3.50;95.10
67161;DHT22;54088;52.238;21.104;2023-01-24T00:16:35;3.40;95.20
67161;DHT22;54088;52.238;21.104;2023-01-24T00:19:01;3.30;95.10
67161;DHT22;54088;52.238;21.104;2023-01-24T00:21:26;3.30;95.50
67161;DHT22;54088;52.238;21.104;2023-01-24T00:23:52;3.30;95.60
67161;DHT22;54088;52.238;21.104;2023-01-24T00:26:18;3.30;95.60
67161;DHT22;54088;52.238;21.104;2023-01-24T00:28:45;3.30;95.70
67161;DHT22;54088;52.238;21.104;2023-01-24T00:31:11;3.30;95.70
67161;DHT22;54088;52.238;21.104;2023-01-24T00:33:36;3.30;95.70
67161;DHT22;54088;52.238;21.104;2023-01-24T00:36:02;3.40;95.50
67161;DHT22;54088;52.238;21.104;2023-01-24T00:38:28;3.30;95.50
67161;DHT22;54088;52.238;21.104;2023-01-24T00:40:54;3.40;95.60
67161;DHT22;54088;52.238;21.104;2023-01-24T00:43:20;3.50;95.50
67161;DHT22;54088;52.238;21.104;2023-01-24T00:45:45;3.50;95.50
67161;DHT22;54088;52.238;21.104;2023-01-24T00:48:11;3.60;95.30
67161;DHT22;54088;52.238;21.104;2023-01-24T00:50:37;3.70;95.20
67161;DHT22;54088;52.238;21.104;2023-01-24T00:53:03;3.70;95.00
67161;DHT22;54088;52.238;21.104;2023-01-24T00:55:28;3.70;94.60
67161;DHT22;54088;52.238;21.104;2023-01-24T00:57:54;3.70;94.70
67161;DHT22;54088;52.238;21.104;2023-01-24T01:00:20;3.70;94.70
67161;DHT22;54088;52.238;21.104;2023-01-24T01:02:46;3.70;94.60
67161;DHT22;54088;52.238;21.104;2023-01-24T01:05:12;3.80;94.70
67161;DHT22;54088;52.238;21.104;2023-01-24T01:07:37;3.70;94.50
67161;DHT22;54088;52.238;21.104;2023-01-24T01:10:03;3.70;94.50
67161;DHT22;54088;52.238;21.104;2023-01-24T01:12:29;3.60;94.60
67161;DHT22;54088;52.238;21.104;2023-01-24T01:14:54;3.50;94.70
67161;DHT22;54088;52.238;21.104;2023-01-24T01:17:21;3.50;95.10
67161;DHT22;54088;52.238;21.104;2023-01-24T01:19:50;3.60;95.10
67161;DHT22;54088;52.238;21.104;2023-01-24T01:22:15;3.70;95.10
67161;DHT22;54088;52.238;21.104;2023-01-24T01:24:41;3.60;94.60
67161;DHT22;54088;52.238;21.104;2023-01-24T01:27:07;3.60;94.80
67161;DHT22;54088;52.238;21.104;2023-01-24T01:29:32;3.60;95.10
67161;DHT22;54088;52.238;21.104;2023-01-24T01:31:58;3.70;95.00
67161;DHT22;54088;52.238;21.104;2023-01-24T01:34:24;3.70;94.70
67161;DHT22;54088;52.238;21.104;2023-01-24T01:36:49;3.80;94.70
67161;DHT22;54088;52.238;21.104;2023-01-24T01:39:14;3.70;94.70
67161;DHT22;54088;52.238;21.104;2023-01-24T01:41:40;3.70;94.70
67161;DHT22;54088;52.238;21.104;2023-01-24T01:44:19;3.70;94.70
67161;DHT22;54088;52.238;21.104;2023-01-24T01:47:04;3.60;94.70
67161;DHT22;54088;52.238;21.104;2023-01-24T01:49:30;3.70;95.00
67161;DHT22;54088;52.238;21.104;2023-01-24T01:51:58;3.60;95.00
67161;DHT22;54088;52.238;21.104;2023-01-24T01:54:26;3.60;94.90
67161;DHT22;54088;52.238;21.104;2023-01-24T01:56:56;3.60;95.00
67161;DHT22;54088;52.238;21.104;2023-01-24T01:59:25;3.50;95.10
67161;DHT22;54088;52.238;21.104;2023-01-24T02:01:52;3.50;95.40
67161;DHT22;54088;52.238;21.104;2023-01-24T02:04:31;3.50;95.20
67161;DHT22;54088;52.238;21.104;2023-01-24T02:07:00;3.50;95.40
67161;DHT22;54088;52.238;21.104;2023-01-24T02:09:27;3.50;95.60
67161;DHT22;54088;52.238;21.104;2023-01-24T02:11:53;3.50;95.60
67161;DHT22;54088;52.238;21.104;2023-01-24T02:14:21;3.50;95.40
67161;DHT22;54088;52.238;21.104;2023-01-24T02:17:07;3.40;95.40
67161;DHT22;54088;52.238;21.104;2023-01-24T02:22:28;3.40;95.70
67161;DHT22;54088;52.238;21.104;2023-01-24T02:25:40;3.30;95.60
67161;DHT22;54088;52.238;21.104;2023-01-24T02:27:45;3.30;96.00
67161;DHT22;54088;52.238;21.104;2023-01-24T02:30:11;3.40;96.00
67161;DHT22;54088;52.238;21.104;2023-01-24T02:32:36;3.40;95.80
67161;DHT22;54088;52.238;21.104;2023-01-24T02:35:02;3.50;95.90
67161;DHT22;54088;52.238;21.104;2023-01-24T02:37:28;3.50;95.90
67161;DHT22;54088;52.238;21.104;2023-01-24T02:40:07;3.50;95.70
67161;DHT22;54088;52.238;21.104;2023-01-24T02:42:35;3.50;95.60
67161;DHT22;54088;52.238;21.104;2023-01-24T02:47:56;3.50;96.10
67161;DHT22;54088;52.238;21.104;2023-01-24T02:50:23;3.50;95.70
67161;DHT22;54088;52.238;21.104;2023-01-24T02:52:49;3.50;95.70
67161;DHT22;54088;52.238;21.104;2023-01-24T02:55:34;3.50;95.90
67161;DHT22;54088;52.238;21.104;2023-01-24T02:58:19;3.50;95.80
67161;DHT22;54088;52.238;21.104;2023-01-24T03:00:45;3.60;95.60
67161;DHT22;54088;52.238;21.104;2023-01-24T03:03:10;3.50;95.60
67161;DHT22;54088;52.238;21.104;2023-01-24T03:05:36;3.50;96.00
67161;DHT22;54088;52.238;21.104;2023-01-24T03:08:20;3.50;95.80
67161;DHT22;54088;52.238;21.104;2023-01-24T03:10:45;3.50;95.80
67161;DHT22;54088;52.238;21.104;2023-01-24T03:13:12;3.60;95.70
67161;DHT22;54088;52.238;21.104;2023-01-24T03:15:58;3.60;95.90
67161;DHT22;54088;52.238;21.104;2023-01-24T03:18:42;3.60;95.80
67161;DHT22;54088;52.238;21.104;2023-01-24T03:21:27;3.60;95.60
67161;DHT22;54088;52.238;21.104;2023-01-24T03:24:11;3.60;95.70
67161;DHT22;54088;52.238;21.104;2023-01-24T03:26:55;3.60;96.00
67161;DHT22;54088;52.238;21.104;2023-01-24T03:29:39;3.70;95.80
67161;DHT22;54088;52.238;21.104;2023-01-24T03:32:23;3.70;95.50
67161;DHT22;54088;52.238;21.104;2023-01-24T03:35:08;3.60;95.40
67161;DHT22;54088;52.238;21.104;2023-01-24T03:37:33;3.60;95.80
67161;DHT22;54088;52.238;21.104;2023-01-24T03:40:17;3.70;95.80
67161;DHT22;54088;52.238;21.104;2023-01-24T03:42:43;3.70;95.60
67161;DHT22;54088;52.238;21.104;2023-01-24T03:45:15;3.70;95.70
67161;DHT22;54088;52.238;21.104;2023-01-24T03:47:46;3.70;95.50
67161;DHT22;54088;52.238;21.104;2023-01-24T03:50:35;3.80;95.50
67161;DHT22;54088;52.238;21.104;2023-01-24T03:53:19;3.80;95.50
67161;DHT22;54088;52.238;21.104;2023-01-24T03:55:45;3.80;95.20
67161;DHT22;54088;52.238;21.104;2023-01-24T03:58:11;3.80;95.20
67161;DHT22;54088;52.238;21.104;2023-01-24T04:00:38;3.70;95.10
67161;DHT22;54088;52.238;21.104;2023-01-24T04:03:04;3.70;95.40
67161;DHT22;54088;52.238;21.104;2023-01-24T04:05:29;3.70;95.70
67161;DHT22;54088;52.238;21.104;2023-01-24T04:07:57;3.70;95.70
67161;DHT22;54088;52.238;21.104;2023-01-24T04:10:22;3.70;95.60
67161;DHT22;54088;52.238;21.104;2023-01-24T04:12:48;3.80;95.50
67161;DHT22;54088;52.238;21.104;2023-01-24T04:15:15;3.80;95.20
67161;DHT22;54088;52.238;21.104;2023-01-24T04:17:41;3.70;95.40
67161;DHT22;54088;52.238;21.104;2023-01-24T04:20:07;3.80;95.50
67161;DHT22;54088;52.238;21.104;2023-01-24T04:22:32;3.70;95.30
67161;DHT22;54088;52.238;21.104;2023-01-24T04:24:58;3.70;95.30
67161;DHT22;54088;52.238;21.104;2023-01-24T04:27:23;3.70;95.60
67161;DHT22;54088;52.238;21.104;2023-01-24T04:29:49;3.70;95.50
67161;DHT22;54088;52.238;21.104;2023-01-24T04:32:14;3.60;95.20
67161;DHT22;54088;52.238;21.104;2023-01-24T04:34:40;3.50;95.60
67161;DHT22;54088;52.238;21.104;2023-01-24T04:37:05;3.50;95.70
67161;DHT22;54088;52.238;21.104;2023-01-24T04:39:31;3.50;95.90
67161;DHT22;54088;52.238;21.104;2023-01-24T04:41:56;3.60;95.90
67161;DHT22;54088;52.238;21.104;2023-01-24T04:44:22;3.60;95.70
67161;DHT22;54088;52.238;21.104;2023-01-24T04:46:47;3.60;95.70
67161;DHT22;54088;52.238;21.104;2023-01-24T04:49:13;3.60;95.50
67161;DHT22;54088;52.238;21.104;2023-01-24T04:51:38;3.50;95.70
67161;DHT22;54088;52.238;21.104;2023-01-24T04:54:08;3.60;95.80
67161;DHT22;54088;52.238;21.104;2023-01-24T04:56:34;3.60;95.70
67161;DHT22;54088;52.238;21.104;2023-01-24T04:58:59;3.60;95.80
67161;DHT22;54088;52.238;21.104;2023-01-24T05:01:24;3.50;95.60
67161;DHT22;54088;52.238;21.104;2023-01-24T05:03:50;3.50;95.80
67161;DHT22;54088;52.238;21.104;2023-01-24T05:06:15;3.50;95.80
67161;DHT22;54088;52.238;21.104;2023-01-24T05:08:41;3.50;95.90
67161;DHT22;54088;52.238;21.104;2023-01-24T05:11:06;3.60;95.90
67161;DHT22;54088;52.238;21.104;2023-01-24T05:13:32;3.60;95.70
67161;DHT22;54088;52.238;21.104;2023-01-24T05:15:57;3.70;95.60
67161;DHT22;54088;52.238;21.104;2023-01-24T05:18:23;3.60;95.50
67161;DHT22;54088;52.238;21.104;2023-01-24T05:20:48;3.60;95.70
67161;DHT22;54088;52.238;21.104;2023-01-24T05:23:14;3.70;95.70
67161;DHT22;54088;52.238;21.104;2023-01-24T05:25:39;3.70;95.50
67161;DHT22;54088;52.238;21.104;2023-01-24T05:28:05;3.70;95.30
67161;DHT22;54088;52.238;21.104;2023-01-24T05:30:30;3.60;95.40
67161;DHT22;54088;52.238;21.104;2023-01-24T05:32:56;3.60;95.50
67161;DHT22;54088;52.238;21.104;2023-01-24T05:35:22;3.60;95.50
67161;DHT22;54088;52.238;21.104;2023-01-24T05:37:47;3.60;95.60
67161;DHT22;54088;52.238;21.104;2023-01-24T05:40:13;3.70;95.60
67161;DHT22;54088;52.238;21.104;2023-01-24T05:42:42;3.70;95.40
67161;DHT22;54088;52.238;21.104;2023-01-24T05:45:08;3.80;95.40
67161;DHT22;54088;52.238;21.104;2023-01-24T05:47:34;3.80;95.40
67161;DHT22;54088;52.238;21.104;2023-01-24T05:49:59;3.80;95.10
67161;DHT22;54088;52.238;21.104;2023-01-24T05:52:25;3.70;95.20
67161;DHT22;54088;52.238;21.104;2023-01-24T05:54:51;3.70;95.40
67161;DHT22;54088;52.238;21.104;2023-01-24T05:57:17;3.70;95.30
67161;DHT22;54088;52.238;21.104;2023-01-24T05:59:42;3.70;95.30
67161;DHT22;54088;52.238;21.104;2023-01-24T06:02:08;3.70;95.40
67161;DHT22;54088;52.238;21.104;2023-01-24T06:04:33;3.60;95.40
67161;DHT22;54088;52.238;21.104;2023-01-24T06:06:59;3.70;95.70
67161;DHT22;54088;52.238;21.104;2023-01-24T06:09:24;3.70;95.40
67161;DHT22;54088;52.238;21.104;2023-01-24T06:11:50;3.70;95.10
67161;DHT22;54088;52.238;21.104;2023-01-24T06:14:16;3.60;95.40
67161;DHT22;54088;52.238;21.104;2023-01-24T06:16:42;3.70;95.60
67161;DHT22;54088;52.238;21.104;2023-01-24T06:19:07;3.70;95.40
67161;DHT22;54088;52.238;21.104;2023-01-24T06:24:00;3.70;95.40
67161;DHT22;54088;52.238;21.104;2023-01-24T06:26:26;3.80;95.40
67161;DHT22;54088;52.238;21.104;2023-01-24T06:28:52;3.80;95.30
67161;DHT22;54088;52.238;21.104;2023-01-24T06:36:33;3.90;95.10
67161;DHT22;54088;52.238;21.104;2023-01-24T06:39:01;3.90;94.90
67161;DHT22;54088;52.238;21.104;2023-01-24T06:41:27;3.80;94.90
67161;DHT22;54088;52.238;21.104;2023-01-24T06:43:52;3.80;95.20
67161;DHT22;54088;52.238;21.104;2023-01-24T06:46:18;3.80;95.10
67161;DHT22;54088;52.238;21.104;2023-01-24T06:48:44;3.80;95.00
67161;DHT22;54088;52.238;21.104;2023-01-24T06:51:11;3.70;95.00
67161;DHT22;54088;52.238;21.104;2023-01-24T06:53:37;3.70;95.20
67161;DHT22;54088;52.238;21.104;2023-01-24T06:56:03;3.70;95.40
67161;DHT22;54088;52.238;21.104;2023-01-24T06:58:28;3.90;95.40
67161;DHT22;54088;52.238;21.104;2023-01-24T07:00:54;3.80;95.00
67161;DHT22;54088;52.238;21.104;2023-01-24T07:03:19;3.80;95.00
67161;DHT22;54088;52.238;21.104;2023-01-24T07:05:45;3.80;95.30
67161;DHT22;54088;52.238;21.104;2023-01-24T07:08:10;3.80;95.00
67161;DHT22;54088;52.238;21.104;2023-01-24T07:10:36;3.80;95.30
67161;DHT22;54088;52.238;21.104;2023-01-24T07:13:04;3.90;95.20
67161;DHT22;54088;52.238;21.104;2023-01-24T07:15:29;3.90;95.10
67161;DHT22;54088;52.238;21.104;2023-01-24T07:17:55;4.00;95.10
67161;DHT22;54088;52.238;21.104;2023-01-24T07:20:21;4.00;94.80
67161;DHT22;54088;52.238;21.104;2023-01-24T07:22:46;4.00;94.60
67161;DHT22;54088;52.238;21.104;2023-01-24T07:25:16;3.90;94.60
67161;DHT22;54088;52.238;21.104;2023-01-24T07:27:42;3.90;94.80
67161;DHT22;54088;52.238;21.104;2023-01-24T07:30:09;3.90;94.90
67161;DHT22;54088;52.238;21.104;2023-01-24T07:32:34;3.90;94.60
67161;DHT22;54088;52.238;21.104;2023-01-24T07:35:00;3.80;94.90
67161;DHT22;54088;52.238;21.104;2023-01-24T07:37:25;3.80;95.20
67161;DHT22;54088;52.238;21.104;2023-01-24T07:39:51;3.80;95.20
67161;DHT22;54088;52.238;21.104;2023-01-24T07:42:16;3.90;95.10
67161;DHT22;54088;52.238;21.104;2023-01-24T07:44:42;4.00;95.10
67161;DHT22;54088;52.238;21.104;2023-01-24T07:47:07;4.10;95.10
67161;DHT22;54088;52.238;21.104;2023-01-24T07:49:33;4.10;94.70
67161;DHT22;54088;52.238;21.104;2023-01-24T07:51:58;4.10;94.40
67161;DHT22;54088;52.238;21.104;2023-01-24T07:54:24;4.10;94.60
67161;DHT22;54088;52.238;21.104;2023-01-24T07:56:49;4.10;94.50
67161;DHT22;54088;52.238;21.104;2023-01-24T07:59:15;4.10;94.30
67161;DHT22;54088;52.238;21.104;2023-01-24T08:01:40;4.00;94.40
67161;DHT22;54088;52.238;21.104;2023-01-24T08:04:06;4.10;94.60
67161;DHT22;54088;52.238;21.104;2023-01-24T08:06:31;4.20;94.60
67161;DHT22;54088;52.238;21.104;2023-01-24T08:08:57;4.20;94.50
67161;DHT22;54088;52.238;21.104;2023-01-24T08:11:22;4.30;94.40
67161;DHT22;54088;52.238;21.104;2023-01-24T08:13:48;4.40;94.00
67161;DHT22;54088;52.238;21.104;2023-01-24T08:16:15;4.40;93.70
67161;DHT22;54088;52.238;21.104;2023-01-24T08:18:41;4.40;93.90
67161;DHT22;54088;52.238;21.104;2023-01-24T08:21:07;4.30;93.90
67161;DHT22;54088;52.238;21.104;2023-01-24T08:23:32;4.40;93.90
67161;DHT22;54088;52.238;21.104;2023-01-24T08:25:58;4.40;93.80
67161;DHT22;54088;52.238;21.104;2023-01-24T08:28:24;4.40;93.50
67161;DHT22;54088;52.238;21.104;2023-01-24T08:30:49;4.40;93.80
67161;DHT22;54088;52.238;21.104;2023-01-24T08:33:15;4.50;93.90
67161;DHT22;54088;52.238;21.104;2023-01-24T08:35:47;4.60;93.80
67161;DHT22;54088;52.238;21.104;2023-01-24T08:38:13;4.70;93.40
67161;DHT22;54088;52.238;21.104;2023-01-24T09:04:56;3.40;94.30
67161;DHT22;54088;52.238;21.104;2023-01-24T09:07:22;3.40;95.30
67161;DHT22;54088;52.238;21.104;2023-01-24T09:09:48;3.50;96.10
67161;DHT22;54088;52.238;21.104;2023-01-24T09:12:13;3.70;96.30
67161;DHT22;54088;52.238;21.104;2023-01-24T09:14:39;4.00;96.10
67161;DHT22;54088;52.238;21.104;2023-01-24T09:17:04;4.20;95.70
67161;DHT22;54088;52.238;21.104;2023-01-24T09:19:30;4.40;95.40
67161;DHT22;54088;52.238;21.104;2023-01-24T09:21:55;4.60;94.90
67161;DHT22;54088;52.238;21.104;2023-01-24T09:24:22;4.70;94.50
67161;DHT22;54088;52.238;21.104;2023-01-24T09:26:48;4.70;93.90
67161;DHT22;54088;52.238;21.104;2023-01-24T09:29:14;4.70;93.80
67161;DHT22;54088;52.238;21.104;2023-01-24T09:31:40;4.70;93.80
67161;DHT22;54088;52.238;21.104;2023-01-24T09:34:05;4.80;93.60
67161;DHT22;54088;52.238;21.104;2023-01-24T09:36:31;4.80;93.30
67161;DHT22;54088;52.238;21.104;2023-01-24T09:38:57;4.80;93.50
67161;DHT22;54088;52.238;21.104;2023-01-24T09:41:38;5.00;93.30
67161;DHT22;54088;52.238;21.104;2023-01-24T09:44:38;5.10;93.00
67161;DHT22;54088;52.238;21.104;2023-01-24T09:47:20;5.30;92.70
67161;DHT22;54088;52.238;21.104;2023-01-24T09:49:54;5.20;92.50
67161;DHT22;54088;52.238;21.104;2023-01-24T10:00:33;5.00;92.20
67161;DHT22;54088;52.238;21.104;2023-01-24T10:03:00;4.90;92.70
67161;DHT22;54088;52.238;21.104;2023-01-24T10:05:50;5.00;93.00
67161;DHT22;54088;52.238;21.104;2023-01-24T10:11:32;5.10;92.80
67161;DHT22;54088;52.238;21.104;2023-01-24T10:23:17;5.20;92.70
67161;DHT22;54088;52.238;21.104;2023-01-24T10:25:54;5.30;92.60
67161;DHT22;54088;52.238;21.104;2023-01-24T10:28:39;5.20;92.60
67161;DHT22;54088;52.238;21.104;2023-01-24T10:31:13;5.20;92.30
67161;DHT22;54088;52.238;21.104;2023-01-24T10:33:48;5.20;92.10
67161;DHT22;54088;52.238;21.104;2023-01-24T10:39:12;5.20;91.90
67161;DHT22;54088;52.238;21.104;2023-01-24T10:41:38;5.20;92.20
67161;DHT22;54088;52.238;21.104;2023-01-24T10:44:08;5.20;92.10
67161;DHT22;54088;52.238;21.104;2023-01-24T10:46:50;5.20;92.10
67161;DHT22;54088;52.238;21.104;2023-01-24T10:49:27;5.10;92.20
67161;DHT22;54088;52.238;21.104;2023-01-24T10:57:40;4.90;92.30
67161;DHT22;54088;52.238;21.104;2023-01-24T11:02:41;5.00;92.60
67161;DHT22;54088;52.238;21.104;2023-01-24T11:05:13;5.00;92.50
67161;DHT22;54088;52.238;21.104;2023-01-24T11:07:45;5.00;92.50
67161;DHT22;54088;52.238;21.104;2023-01-24T11:10:22;5.00;92.30
67161;DHT22;54088;52.238;21.104;2023-01-24T11:12:53;5.00;92.50
67161;DHT22;54088;52.238;21.104;2023-01-24T11:15:32;5.00;92.70
67161;DHT22;54088;52.238;21.104;2023-01-24T11:18:25;5.10;92.50
67161;DHT22;54088;52.238;21.104;2023-01-24T11:21:08;5.20;92.60
67161;DHT22;54088;52.238;21.104;2023-01-24T11:23:33;5.10;92.10
67161;DHT22;54088;52.238;21.104;2023-01-24T11:26:02;5.10;92.40
67161;DHT22;54088;52.238;21.104;2023-01-24T11:28:30;5.20;92.30
67161;DHT22;54088;52.238;21.104;2023-01-24T11:31:01;5.20;92.20
67161;DHT22;54088;52.238;21.104;2023-01-24T11:33:36;5.20;92.20
67161;DHT22;54088;52.238;21.104;2023-01-24T11:38:57;5.10;92.00
67161;DHT22;54088;52.238;21.104;2023-01-24T11:41:32;5.10;92.20
67161;DHT22;54088;52.238;21.104;2023-01-24T11:57:33;5.30;91.80
67161;DHT22;54088;52.238;21.104;2023-01-24T12:02:59;5.20;91.80
67161;DHT22;54088;52.238;21.104;2023-01-24T12:05:55;5.10;92.20
67161;DHT22;54088;52.238;21.104;2023-01-24T12:11:20;5.20;92.30
67161;DHT22;54088;52.238;21.104;2023-01-24T12:22:19;5.30;91.90
67161;DHT22;54088;52.238;21.104;2023-01-24T12:24:51;5.30;92.00
67161;DHT22;54088;52.238;21.104;2023-01-24T12:27:21;5.40;91.60
67161;DHT22;54088;52.238;21.104;2023-01-24T12:30:01;5.40;91.80
67161;DHT22;54088;52.238;21.104;2023-01-24T12:37:45;5.40;91.60
67161;DHT22;54088;52.238;21.104;2023-01-24T12:40:22;5.30;91.80
67161;DHT22;54088;52.238;21.104;2023-01-24T12:46:15;5.10;91.90
67161;DHT22;54088;52.238;21.104;2023-01-24T12:48:55;5.20;92.10
67161;DHT22;54088;52.238;21.104;2023-01-24T12:51:35;5.20;92.10
67161;DHT22;54088;52.238;21.104;2023-01-24T12:54:25;5.30;91.90
67161;DHT22;54088;52.238;21.104;2023-01-24T12:57:08;5.30;91.90
67161;DHT22;54088;52.238;21.104;2023-01-24T12:59:36;5.40;91.70
67161;DHT22;54088;52.238;21.104;2023-01-24T13:05:45;5.40;91.50
67161;DHT22;54088;52.238;21.104;2023-01-24T13:19:30;5.50;91.60
67161;DHT22;54088;52.238;21.104;2023-01-24T13:22:38;5.50;91.30
67161;DHT22;54088;52.238;21.104;2023-01-24T13:33:27;5.50;91.20
67161;DHT22;54088;52.238;21.104;2023-01-24T13:35:54;5.40;91.20
67161;DHT22;54088;52.238;21.104;2023-01-24T13:38:27;5.30;91.40
67161;DHT22;54088;52.238;21.104;2023-01-24T13:41:05;5.20;91.70
67161;DHT22;54088;52.238;21.104;2023-01-24T13:46:17;5.10;91.60
67161;DHT22;54088;52.238;21.104;2023-01-24T13:48:45;5.00;91.80
67161;DHT22;54088;52.238;21.104;2023-01-24T13:54:15;4.90;92.10
67161;DHT22;54088;52.238;21.104;2023-01-24T13:57:45;5.00;92.30
67161;DHT22;54088;52.238;21.104;2023-01-24T14:02:41;5.10;92.20
67161;DHT22;54088;52.238;21.104;2023-01-24T14:13:01;5.20;92.00
67161;DHT22;54088;52.238;21.104;2023-01-24T14:15:36;5.20;92.00
67161;DHT22;54088;52.238;21.104;2023-01-24T14:18:02;5.30;91.90
67161;DHT22;54088;52.238;21.104;2023-01-24T14:20:35;5.40;91.70
67161;DHT22;54088;52.238;21.104;2023-01-24T14:23:10;5.30;91.60
67161;DHT22;54088;52.238;21.104;2023-01-24T14:25:58;5.30;91.60
67161;DHT22;54088;52.238;21.104;2023-01-24T14:28:39;5.30;91.60
67161;DHT22;54088;52.238;21.104;2023-01-24T14:31:36;5.30;91.70
67161;DHT22;54088;52.238;21.104;2023-01-24T14:34:33;5.30;91.60
67161;DHT22;54088;52.238;21.104;2023-01-24T14:37:07;5.20;91.70
67161;DHT22;54088;52.238;21.104;2023-01-24T14:39:33;5.10;91.70
67161;DHT22;54088;52.238;21.104;2023-01-24T14:42:00;5.10;91.90
67161;DHT22;54088;52.238;21.104;2023-01-24T14:44:29;5.10;91.90
67161;DHT22;54088;52.238;21.104;2023-01-24T14:47:04;5.10;91.90
67161;DHT22;54088;52.238;21.104;2023-01-24T14:49:34;5.00;91.90
67161;DHT22;54088;52.238;21.104;2023-01-24T14:52:02;5.00;91.90
67161;DHT22;54088;52.238;21.104;2023-01-24T14:54:28;4.90;92.00
67161;DHT22;54088;52.238;21.104;2023-01-24T14:56:53;4.90;92.10
67161;DHT22;54088;52.238;21.104;2023-01-24T14:59:20;4.90;92.40
67161;DHT22;54088;52.238;21.104;2023-01-24T15:01:51;4.90;92.10
67161;DHT22;54088;52.238;21.104;2023-01-24T15:04:26;4.80;92.20
67161;DHT22;54088;52.238;21.104;2023-01-24T15:09:32;4.90;92.30
67161;DHT22;54088;52.238;21.104;2023-01-24T15:12:17;4.90;92.30
67161;DHT22;54088;52.238;21.104;2023-01-24T15:14:47;4.90;92.30
67161;DHT22;54088;52.238;21.104;2023-01-24T15:17:20;4.80;92.40
67161;DHT22;54088;52.238;21.104;2023-01-24T15:19:49;4.80;92.50
67161;DHT22;54088;52.238;21.104;2023-01-24T15:22:20;4.80;92.90
67161;DHT22;54088;52.238;21.104;2023-01-24T15:24:57;4.80;92.60
67161;DHT22;54088;52.238;21.104;2023-01-24T15:32:43;4.80;92.60
67161;DHT22;54088;52.238;21.104;2023-01-24T15:35:44;4.70;92.70
67161;DHT22;54088;52.238;21.104;2023-01-24T15:43:37;4.70;93.10
67161;DHT22;54088;52.238;21.104;2023-01-24T15:52:01;4.70;93.10
67161;DHT22;54088;52.238;21.104;2023-01-24T15:54:27;4.70;93.20
67161;DHT22;54088;52.238;21.104;2023-01-24T15:56:55;4.80;93.10
67161;DHT22;54088;52.238;21.104;2023-01-24T15:59:22;4.80;93.10
67161;DHT22;54088;52.238;21.104;2023-01-24T16:01:49;4.90;93.20
67161;DHT22;54088;52.238;21.104;2023-01-24T16:04:17;4.90;93.10
67161;DHT22;54088;52.238;21.104;2023-01-24T16:06:43;4.90;92.90
67161;DHT22;54088;52.238;21.104;2023-01-24T16:09:09;4.90;92.90
67161;DHT22;54088;52.238;21.104;2023-01-24T16:11:35;5.00;92.90
67161;DHT22;54088;52.238;21.104;2023-01-24T16:14:01;4.90;92.70
67161;DHT22;54088;52.238;21.104;2023-01-24T16:16:28;4.90;92.80
67161;DHT22;54088;52.238;21.104;2023-01-24T16:18:54;4.90;92.90
67161;DHT22;54088;52.238;21.104;2023-01-24T16:21:19;5.00;92.90
67161;DHT22;54088;52.238;21.104;2023-01-24T16:23:45;5.00;93.00
67161;DHT22;54088;52.238;21.104;2023-01-24T16:26:23;5.00;92.80
67161;DHT22;54088;52.238;21.104;2023-01-24T16:28:50;4.90;92.80
67161;DHT22;54088;52.238;21.104;2023-01-24T16:31:16;4.80;93.00
67161;DHT22;54088;52.238;21.104;2023-01-24T16:33:42;4.80;93.00
67161;DHT22;54088;52.238;21.104;2023-01-24T16:36:13;4.80;93.10
67161;DHT22;54088;52.238;21.104;2023-01-24T16:38:41;4.70;93.20
67161;DHT22;54088;52.238;21.104;2023-01-24T16:41:06;4.60;93.40
67161;DHT22;54088;52.238;21.104;2023-01-24T16:43:32;4.60;93.60
67161;DHT22;54088;52.238;21.104;2023-01-24T16:45:58;4.50;93.80
67161;DHT22;54088;52.238;21.104;2023-01-24T16:48:25;4.50;93.90
67161;DHT22;54088;52.238;21.104;2023-01-24T16:50:51;4.50;94.10
67161;DHT22;54088;52.238;21.104;2023-01-24T16:53:16;4.50;94.10
67161;DHT22;54088;52.238;21.104;2023-01-24T16:55:43;4.50;94.20
67161;DHT22;54088;52.238;21.104;2023-01-24T16:58:10;4.40;94.30
67161;DHT22;54088;52.238;21.104;2023-01-24T17:00:36;4.40;94.60
67161;DHT22;54088;52.238;21.104;2023-01-24T17:03:03;4.30;94.70
67161;DHT22;54088;52.238;21.104;2023-01-24T17:05:29;4.40;94.80
67161;DHT22;54088;52.238;21.104;2023-01-24T17:07:56;4.40;94.80
67161;DHT22;54088;52.238;21.104;2023-01-24T17:10:22;4.30;94.80
67161;DHT22;54088;52.238;21.104;2023-01-24T17:12:49;4.30;94.90
67161;DHT22;54088;52.238;21.104;2023-01-24T17:15:14;4.30;95.00
67161;DHT22;54088;52.238;21.104;2023-01-24T17:17:41;4.30;95.00
67161;DHT22;54088;52.238;21.104;2023-01-24T17:20:09;4.30;95.00
67161;DHT22;54088;52.238;21.104;2023-01-24T17:22:36;4.30;95.00
67161;DHT22;54088;52.238;21.104;2023-01-24T17:25:02;4.40;95.10
67161;DHT22;54088;52.238;21.104;2023-01-24T17:27:28;4.40;94.80
67161;DHT22;54088;52.238;21.104;2023-01-24T17:29:55;4.50;94.90
67161;DHT22;54088;52.238;21.104;2023-01-24T17:32:20;4.50;94.70
67161;DHT22;54088;52.238;21.104;2023-01-24T17:34:46;4.60;94.70
67161;DHT22;54088;52.238;21.104;2023-01-24T17:37:12;4.60;94.60
67161;DHT22;54088;52.238;21.104;2023-01-24T17:39:38;4.50;94.50
67161;DHT22;54088;52.238;21.104;2023-01-24T17:42:03;4.60;94.50
67161;DHT22;54088;52.238;21.104;2023-01-24T17:44:29;4.60;94.40
67161;DHT22;54088;52.238;21.104;2023-01-24T17:46:54;4.50;94.30
67161;DHT22;54088;52.238;21.104;2023-01-24T17:49:22;4.50;94.30
67161;DHT22;54088;52.238;21.104;2023-01-24T17:51:48;4.50;94.40
67161;DHT22;54088;52.238;21.104;2023-01-24T17:54:15;4.50;94.50
67161;DHT22;54088;52.238;21.104;2023-01-24T17:56:44;4.50;94.40
67161;DHT22;54088;52.238;21.104;2023-01-24T17:59:10;4.50;94.30
67161;DHT22;54088;52.238;21.104;2023-01-24T18:01:36;4.50;94.30
67161;DHT22;54088;52.238;21.104;2023-01-24T18:04:01;4.40;94.30
67161;DHT22;54088;52.238;21.104;2023-01-24T18:06:29;4.40;94.40
67161;DHT22;54088;52.238;21.104;2023-01-24T18:08:55;4.40;94.40
67161;DHT22;54088;52.238;21.104;2023-01-24T18:11:20;4.40;94.50
67161;DHT22;54088;52.238;21.104;2023-01-24T18:13:46;4.40;94.50
67161;DHT22;54088;52.238;21.104;2023-01-24T18:16:15;4.40;94.50
67161;DHT22;54088;52.238;21.104;2023-01-24T18:18:41;4.50;94.50
67161;DHT22;54088;52.238;21.104;2023-01-24T18:21:12;4.50;94.30
67161;DHT22;54088;52.238;21.104;2023-01-24T18:23:38;4.50;94.20
67161;DHT22;54088;52.238;21.104;2023-01-24T18:26:05;4.40;94.30
67161;DHT22;54088;52.238;21.104;2023-01-24T18:28:32;4.40;94.20
67161;DHT22;54088;52.238;21.104;2023-01-24T18:30:57;4.40;94.40